Time;durP1;ratioP1;P1;durP2;ratioP2;P2;SDS_P1;SDS_P2;PMS_P1;PMS_P2;Temp;Humidity;BMP_temperature;BMP_pressure;BME280_temperature;BME280_humidity;BME280_pressure;Samples;Min_cycle;Max_cycle;Signal;HPM_P1;HPM_P2
2024/01/27 00:02:44;;;;;;;5.75;3.22;;;3.60;99.90;;;;;;5045414;28;20221;-71
2024/01/27 00:05:29;;;;;;;6.60;2.70;;;3.50;99.90;;;;;;5044844;28;20205;-71
2024/01/27 00:08:15;;;;;;;9.02;3.05;;;3.40;99.90;;;;;;5059597;28;20276;-71
2024/01/27 00:11:01;;;;;;;8.57;2.60;;;3.40;99.90;;;;;;5055585;28;20212;-71
2024/01/27 00:13:47;;;;;;;5.63;3.55;;;3.40;99.90;;;;;;5059690;28;20225;-71
2024/01/27 00:16:34;;;;;;;6.65;2.53;;;3.40;99.90;;;;;;5061248;28;20619;-71
2024/01/27 00:19:19;;;;;;;6.60;2.35;;;3.30;99.90;;;;;;5054202;28;20203;-71
2024/01/27 00:22:05;;;;;;;18.85;2.97;;;3.30;99.90;;;;;;5048364;28;20283;-71
2024/01/27 00:24:51;;;;;;;8.23;2.85;;;3.20;99.90;;;;;;5058077;28;20201;-69
2024/01/27 00:27:37;;;;;;;7.38;2.60;;;3.20;99.90;;;;;;5062426;28;20688;-71
2024/01/27 00:30:22;;;;;;;6.28;2.80;;;3.20;99.90;;;;;;5057157;28;20703;-71
2024/01/27 00:33:09;;;;;;;6.60;2.25;;;3.20;99.90;;;;;;5049636;28;20237;-71
2024/01/27 00:35:55;;;;;;;6.65;2.40;;;3.10;99.90;;;;;;5056708;28;20716;-71
2024/01/27 00:38:40;;;;;;;5.00;2.55;;;3.10;99.90;;;;;;5042584;28;20226;-71
2024/01/27 00:41:26;;;;;;;8.23;2.45;;;2.90;99.90;;;;;;5051708;28;20216;-71
2024/01/27 00:44:12;;;;;;;4.63;2.50;;;2.80;99.90;;;;;;5054276;28;20265;-71
2024/01/27 00:46:58;;;;;;;10.27;2.65;;;2.90;99.90;;;;;;5046161;28;20667;-71
2024/01/27 00:49:45;;;;;;;4.25;2.05;;;2.90;99.90;;;;;;5041825;28;20217;-71
2024/01/27 00:52:31;;;;;;;4.85;2.30;;;2.90;99.90;;;;;;5057189;28;20237;-71
2024/01/27 00:55:17;;;;;;;2.58;2.00;;;2.90;99.90;;;;;;5042050;28;20575;-71
2024/01/27 00:58:03;;;;;;;6.38;2.30;;;2.90;99.90;;;;;;5048945;28;20247;-71
2024/01/27 01:00:49;;;;;;;10.95;2.55;;;2.90;99.90;;;;;;5054343;28;20216;-71
2024/01/27 01:03:34;;;;;;;9.23;4.07;;;3.00;99.90;;;;;;5054243;28;20738;-71
2024/01/27 01:06:21;;;;;;;11.70;2.50;;;3.00;99.90;;;;;;5060658;28;20702;-71
2024/01/27 01:09:07;;;;;;;8.77;3.00;;;3.10;99.90;;;;;;5048603;28;20198;-71
2024/01/27 01:11:52;;;;;;;4.82;2.17;;;2.90;99.90;;;;;;5046863;28;20204;-71
2024/01/27 01:14:38;;;;;;;3.20;2.25;;;2.80;99.90;;;;;;5055672;28;20290;-71
2024/01/27 01:17:23;;;;;;;5.32;2.63;;;2.80;99.90;;;;;;5054621;28;20233;-71
2024/01/27 01:20:10;;;;;;;5.40;2.40;;;2.70;99.90;;;;;;5050327;28;20586;-72
2024/01/27 01:22:57;;;;;;;4.28;2.35;;;2.60;99.90;;;;;;5048791;28;20306;-71
2024/01/27 01:25:44;;;;;;;6.78;2.60;;;2.60;99.90;;;;;;5052701;28;20242;-71
2024/01/27 01:28:31;;;;;;;4.00;2.38;;;2.70;99.90;;;;;;5062557;28;20256;-71
2024/01/27 01:31:17;;;;;;;11.85;2.38;;;2.70;99.90;;;;;;5053625;28;20196;-71
2024/01/27 01:34:02;;;;;;;6.90;2.50;;;2.80;99.90;;;;;;5055068;28;20751;-71
2024/01/27 01:36:48;;;;;;;6.43;2.70;;;2.60;99.90;;;;;;5052948;28;20633;-71
2024/01/27 01:39:35;;;;;;;9.23;2.88;;;2.60;99.90;;;;;;5055985;28;20286;-71
2024/01/27 01:42:24;;;;;;;8.77;2.85;;;2.60;99.90;;;;;;5055763;28;20283;-71
2024/01/27 01:45:12;;;;;;;12.40;2.58;;;2.50;99.90;;;;;;5050521;28;20263;-71
2024/01/27 01:47:58;;;;;;;5.90;2.67;;;2.50;99.90;;;;;;5045618;28;20208;-71
2024/01/27 01:50:44;;;;;;;10.02;2.85;;;2.60;99.90;;;;;;5058434;28;20703;-71
2024/01/27 01:53:29;;;;;;;6.55;2.28;;;2.70;99.90;;;;;;5055833;28;20232;-71
2024/01/27 01:56:17;;;;;;;3.53;2.35;;;2.60;99.90;;;;;;5062450;28;20280;-71
2024/01/27 01:59:02;;;;;;;10.48;2.45;;;2.70;99.90;;;;;;5049552;28;20340;-71
2024/01/27 02:01:48;;;;;;;4.60;2.53;;;2.70;99.90;;;;;;5050051;28;20224;-71
2024/01/27 02:04:40;;;;;;;9.88;3.75;;;2.70;99.90;;;;;;5054623;28;20208;-71
2024/01/27 02:07:26;;;;;;;8.38;2.88;;;2.70;99.90;;;;;;5062246;28;20200;-71
2024/01/27 02:10:15;;;;;;;6.93;2.95;;;2.60;99.90;;;;;;5058416;28;20204;-71
2024/01/27 02:13:02;;;;;;;6.75;3.05;;;2.50;99.90;;;;;;5048641;28;20233;-71
2024/01/27 02:15:48;;;;;;;9.98;2.50;;;2.50;99.90;;;;;;5050374;28;20559;-71
2024/01/27 02:18:34;;;;;;;4.65;2.20;;;2.50;99.90;;;;;;5054111;28;20281;-72
2024/01/27 02:21:19;;;;;;;6.90;2.78;;;2.50;99.90;;;;;;5054633;28;20582;-72
2024/01/27 02:24:09;;;;;;;6.93;2.65;;;2.40;99.90;;;;;;5052073;28;20223;-71
2024/01/27 02:26:55;;;;;;;6.47;2.45;;;2.40;99.90;;;;;;5045143;28;20215;-71
2024/01/27 02:29:40;;;;;;;3.75;2.55;;;2.50;99.90;;;;;;5052449;28;20227;-71
2024/01/27 02:32:26;;;;;;;6.07;2.72;;;2.60;99.90;;;;;;5051544;28;20224;-71
2024/01/27 02:35:12;;;;;;;8.15;2.72;;;2.40;99.90;;;;;;5046552;28;20297;-71
2024/01/27 02:37:58;;;;;;;7.00;2.50;;;2.30;99.90;;;;;;5048000;28;20352;-71
2024/01/27 02:40:45;;;;;;;7.75;2.40;;;2.20;99.90;;;;;;5045452;28;20689;-71
2024/01/27 02:43:30;;;;;;;6.68;2.78;;;2.00;99.90;;;;;;5051685;28;20228;-71
2024/01/27 02:46:16;;;;;;;5.60;2.42;;;2.00;99.90;;;;;;5052248;28;20572;-71
2024/01/27 02:49:02;;;;;;;11.25;2.85;;;2.10;99.90;;;;;;5055714;28;20224;-71
2024/01/27 02:51:48;;;;;;;12.45;3.85;;;2.10;99.90;;;;;;5045211;28;20623;-71
2024/01/27 02:54:33;;;;;;;4.82;1.80;;;2.20;99.90;;;;;;5054761;28;20209;-71
2024/01/27 02:57:20;;;;;;;6.55;2.63;;;2.10;99.90;;;;;;5053222;28;20391;-71
2024/01/27 03:00:07;;;;;;;6.10;2.90;;;2.00;99.90;;;;;;5055909;28;20251;-71
2024/01/27 03:02:54;;;;;;;4.65;2.25;;;1.90;99.90;;;;;;5054970;28;20219;-71
2024/01/27 03:05:39;;;;;;;5.35;2.88;;;2.00;99.90;;;;;;5052192;28;20205;-72
2024/01/27 03:08:25;;;;;;;9.30;2.78;;;2.20;99.90;;;;;;5056942;28;20200;-71
2024/01/27 03:11:11;;;;;;;7.95;2.75;;;2.20;99.90;;;;;;5051282;28;20574;-71
2024/01/27 03:13:57;;;;;;;11.02;3.33;;;2.30;99.90;;;;;;5054685;28;20303;-71
2024/01/27 03:16:44;;;;;;;4.40;2.65;;;2.20;99.90;;;;;;5048952;28;20591;-71
2024/01/27 03:19:29;;;;;;;6.95;2.50;;;2.10;99.90;;;;;;5056769;28;20201;-71
2024/01/27 03:22:15;;;;;;;11.10;2.90;;;2.00;99.90;;;;;;5051228;28;20213;-71
2024/01/27 03:25:01;;;;;;;13.55;3.10;;;1.90;99.90;;;;;;5047549;28;20209;-71
2024/01/27 03:27:46;;;;;;;9.63;2.67;;;1.80;99.90;;;;;;5053562;28;20282;-72
2024/01/27 03:30:34;;;;;;;13.93;3.25;;;1.80;99.90;;;;;;5054565;28;20213;-71
2024/01/27 03:33:19;;;;;;;4.95;2.58;;;1.80;99.90;;;;;;5049255;28;20234;-71
2024/01/27 03:36:11;;;;;;;7.82;2.72;;;2.00;99.90;;;;;;5047598;28;20208;-71
2024/01/27 03:38:57;;;;;;;6.93;3.90;;;2.10;99.90;;;;;;5060400;28;20201;-71
2024/01/27 03:41:43;;;;;;;12.05;2.70;;;2.20;99.90;;;;;;5052986;28;20262;-71
2024/01/27 03:44:28;;;;;;;15.52;3.85;;;2.20;99.90;;;;;;5054459;28;20579;-71
2024/01/27 03:47:16;;;;;;;9.35;4.05;;;2.20;99.90;;;;;;5048985;28;20335;-71
2024/01/27 03:50:01;;;;;;;6.20;2.95;;;1.90;99.90;;;;;;5049900;28;20515;-71
2024/01/27 03:52:47;;;;;;;7.38;2.67;;;1.80;99.90;;;;;;5052806;28;20229;-71
2024/01/27 03:55:34;;;;;;;11.93;3.22;;;1.80;99.90;;;;;;5061348;28;20195;-71
2024/01/27 03:58:19;;;;;;;4.13;3.10;;;1.80;99.90;;;;;;5056997;28;20224;-71
2024/01/27 04:01:06;;;;;;;13.70;2.70;;;1.80;99.90;;;;;;5051239;28;20626;-71
2024/01/27 04:03:53;;;;;;;6.70;2.72;;;1.80;99.90;;;;;;5057711;28;20244;-71
2024/01/27 04:06:39;;;;;;;5.82;2.80;;;1.70;99.90;;;;;;5061781;28;20315;-71
2024/01/27 04:09:24;;;;;;;8.45;3.15;;;1.80;99.90;;;;;;5058873;28;20863;-71
2024/01/27 04:12:10;;;;;;;8.25;2.67;;;1.80;99.90;;;;;;5054545;28;20275;-71
2024/01/27 04:14:56;;;;;;;10.63;3.38;;;1.70;99.90;;;;;;5047269;28;20271;-71
2024/01/27 04:17:42;;;;;;;5.95;3.10;;;1.60;99.90;;;;;;5046189;28;20217;-71
2024/01/27 04:20:29;;;;;;;7.60;3.33;;;1.60;99.90;;;;;;5045846;28;20744;-71
2024/01/27 04:23:15;;;;;;;9.20;3.17;;;1.80;99.90;;;;;;5054543;28;20229;-71
2024/01/27 04:26:00;;;;;;;9.07;2.53;;;1.70;99.90;;;;;;5047148;28;20274;-71
2024/01/27 04:28:46;;;;;;;5.55;2.67;;;1.80;99.90;;;;;;5046455;28;20836;-71
2024/01/27 04:31:32;;;;;;;4.57;2.38;;;1.70;99.90;;;;;;5047726;28;20204;-71
2024/01/27 04:34:18;;;;;;;4.80;2.65;;;1.50;99.90;;;;;;5048174;28;20236;-71
2024/01/27 04:37:05;;;;;;;6.03;2.65;;;1.50;99.90;;;;;;5048783;28;20237;-71
2024/01/27 04:39:51;;;;;;;4.38;2.70;;;1.50;99.90;;;;;;5049674;28;20275;-71
2024/01/27 04:42:39;;;;;;;11.48;3.28;;;1.40;99.90;;;;;;5050172;28;20844;-71
2024/01/27 04:45:24;;;;;;;9.18;2.97;;;1.50;99.90;;;;;;5047767;28;20213;-71
2024/01/27 04:48:10;;;;;;;8.27;2.85;;;1.70;99.90;;;;;;5050250;28;20571;-71
2024/01/27 04:50:56;;;;;;;8.80;3.58;;;1.70;99.90;;;;;;5053292;28;20217;-71
2024/01/27 04:53:43;;;;;;;9.82;3.35;;;1.60;99.90;;;;;;5048610;28;20225;-71
2024/01/27 04:56:29;;;;;;;7.05;2.92;;;1.40;99.90;;;;;;5049570;28;20221;-71
2024/01/27 04:59:14;;;;;;;6.85;3.22;;;1.30;99.90;;;;;;5045981;28;20200;-71
2024/01/27 05:02:00;;;;;;;7.57;3.95;;;1.40;99.90;;;;;;5045421;28;20205;-71
2024/01/27 05:04:46;;;;;;;7.45;2.47;;;1.40;99.90;;;;;;5053262;28;20197;-71
2024/01/27 05:07:32;;;;;;;5.13;2.65;;;1.50;99.90;;;;;;5047416;28;20224;-71
2024/01/27 05:10:19;;;;;;;8.45;3.85;;;1.50;99.90;;;;;;5046718;28;20204;-71
2024/01/27 05:13:05;;;;;;;9.10;3.58;;;1.30;99.90;;;;;;5046980;28;20248;-71
2024/01/27 05:15:50;;;;;;;4.15;2.67;;;1.40;99.90;;;;;;5052657;28;20201;-71
2024/01/27 05:18:36;;;;;;;7.93;2.70;;;1.30;99.90;;;;;;5048599;28;20558;-71
2024/01/27 05:21:22;;;;;;;6.40;3.35;;;1.10;99.90;;;;;;5048968;28;20252;-71
2024/01/27 05:24:07;;;;;;;7.60;3.33;;;1.10;99.90;;;;;;5047343;28;20229;-71
2024/01/27 05:26:54;;;;;;;16.52;3.50;;;1.20;99.90;;;;;;5048022;28;20275;-71
2024/01/27 05:29:40;;;;;;;8.80;3.10;;;1.30;99.90;;;;;;5048526;28;20205;-71
2024/01/27 05:32:26;;;;;;;5.95;2.83;;;1.20;99.90;;;;;;5046316;28;20204;-71
2024/01/27 05:35:11;;;;;;;10.65;3.20;;;1.00;99.90;;;;;;5049118;28;20248;-72
2024/01/27 05:37:57;;;;;;;5.25;2.78;;;1.10;99.90;;;;;;5049718;28;20229;-71
2024/01/27 05:40:45;;;;;;;12.45;2.88;;;1.20;99.90;;;;;;5048084;28;20209;-71
2024/01/27 05:43:32;;;;;;;7.68;2.95;;;1.10;99.90;;;;;;5044594;28;20689;-71
2024/01/27 05:46:17;;;;;;;10.13;2.42;;;1.00;99.90;;;;;;5041782;28;20605;-71
2024/01/27 05:49:03;;;;;;;12.95;3.25;;;1.10;99.90;;;;;;5047404;28;20670;-71
2024/01/27 05:51:50;;;;;;;5.55;3.20;;;1.10;99.90;;;;;;5049636;28;20572;-72
2024/01/27 05:54:36;;;;;;;3.85;2.65;;;1.30;99.90;;;;;;5046503;28;20211;-71
2024/01/27 05:57:22;;;;;;;16.20;3.22;;;1.30;99.90;;;;;;5056170;28;20254;-71
2024/01/27 06:00:10;;;;;;;8.43;3.05;;;1.10;99.90;;;;;;5052659;28;20696;-71
2024/01/27 06:02:55;;;;;;;12.73;3.63;;;1.10;99.90;;;;;;5048312;28;20308;-71
2024/01/27 06:05:42;;;;;;;13.07;3.83;;;1.00;99.90;;;;;;5046583;28;20353;-71
2024/01/27 06:08:27;;;;;;;7.00;3.13;;;1.10;99.90;;;;;;5048250;28;20216;-71
2024/01/27 06:11:13;;;;;;;5.18;2.80;;;1.10;99.90;;;;;;5059125;28;20205;-71
2024/01/27 06:13:59;;;;;;;5.78;3.90;;;1.20;99.90;;;;;;5043112;28;20582;-71
2024/01/27 06:16:46;;;;;;;11.25;4.80;;;1.10;99.90;;;;;;5050978;28;20575;-71
2024/01/27 06:19:31;;;;;;;22.77;4.38;;;0.90;99.90;;;;;;5055145;28;20334;-72
2024/01/27 06:22:17;;;;;;;7.55;3.88;;;0.80;99.90;;;;;;5056413;28;20255;-71
2024/01/27 06:25:02;;;;;;;10.45;3.35;;;0.80;99.90;;;;;;5062395;28;20208;-71
2024/01/27 06:27:48;;;;;;;8.23;3.20;;;0.70;99.90;;;;;;5046895;28;20324;-71
2024/01/27 06:30:34;;;;;;;8.43;3.33;;;0.60;99.90;;;;;;5046918;28;20208;-71
2024/01/27 06:33:21;;;;;;;13.15;4.35;;;0.50;99.90;;;;;;5050600;28;20598;-71
2024/01/27 06:36:09;;;;;;;8.98;4.43;;;0.60;99.90;;;;;;5051108;28;20691;-71
2024/01/27 06:38:54;;;;;;;12.75;3.80;;;0.70;99.90;;;;;;5043750;28;20231;-71
2024/01/27 06:41:40;;;;;;;7.57;3.65;;;0.80;99.90;;;;;;5040403;28;20331;-71
2024/01/27 06:44:25;;;;;;;7.60;3.47;;;0.90;99.90;;;;;;5045606;28;20248;-71
2024/01/27 06:47:11;;;;;;;7.85;3.80;;;0.90;99.90;;;;;;5047445;28;20283;-71
2024/01/27 06:49:58;;;;;;;7.47;3.70;;;0.80;99.90;;;;;;5053287;28;20204;-71
2024/01/27 06:52:44;;;;;;;10.05;3.85;;;0.60;99.90;;;;;;5047936;28;20224;-71
2024/01/27 06:55:30;;;;;;;10.75;4.68;;;0.80;99.90;;;;;;5042123;28;20579;-71
2024/01/27 06:58:15;;;;;;;9.32;4.85;;;1.00;99.90;;;;;;5044737;28;20590;-71
2024/01/27 07:01:01;;;;;;;11.98;4.50;;;1.00;99.90;;;;;;5045331;28;20237;-72
2024/01/27 07:03:47;;;;;;;10.40;4.47;;;0.80;99.90;;;;;;5045840;28;20579;-72
2024/01/27 07:06:34;;;;;;;9.95;4.15;;;0.60;99.90;;;;;;5049280;28;20201;-71
2024/01/27 07:09:20;;;;;;;8.65;4.22;;;0.70;99.90;;;;;;5046191;28;21326;-71
2024/01/27 07:12:06;;;;;;;7.10;5.00;;;0.80;99.90;;;;;;5046174;28;20565;-72
2024/01/27 07:14:52;;;;;;;9.80;5.20;;;0.80;99.90;;;;;;5049442;28;20204;-71
2024/01/27 07:17:37;;;;;;;14.63;6.75;;;0.80;99.90;;;;;;5050647;28;20523;-71
2024/01/27 07:20:24;;;;;;;10.85;5.85;;;0.60;99.90;;;;;;5048505;28;20680;-71
2024/01/27 07:23:11;;;;;;;12.00;6.30;;;0.60;99.90;;;;;;5053815;28;20223;-71
2024/01/27 07:25:57;;;;;;;11.88;6.00;;;0.50;99.90;;;;;;5049495;28;20235;-71
2024/01/27 07:28:42;;;;;;;11.75;5.15;;;0.30;99.90;;;;;;5046285;28;20196;-71
2024/01/27 07:31:28;;;;;;;11.15;5.47;;;0.40;99.90;;;;;;5059788;28;20208;-71
2024/01/27 07:34:14;;;;;;;12.63;5.00;;;0.50;99.90;;;;;;5059146;28;20845;-71
2024/01/27 07:36:59;;;;;;;9.65;4.85;;;0.70;99.90;;;;;;5059878;28;20215;-71
2024/01/27 07:39:46;;;;;;;8.43;5.07;;;0.80;99.90;;;;;;5056648;28;20225;-71
2024/01/27 07:42:32;;;;;;;11.02;5.30;;;0.80;99.90;;;;;;5057636;28;20224;-73
2024/01/27 07:45:17;;;;;;;9.88;4.25;;;0.90;99.90;;;;;;5054163;28;20210;-72
2024/01/27 07:48:04;;;;;;;8.98;4.70;;;0.80;99.90;;;;;;5049228;28;20206;-72
2024/01/27 07:50:50;;;;;;;10.90;5.07;;;0.70;99.90;;;;;;5048009;28;20590;-72
2024/01/27 07:53:35;;;;;;;9.25;5.05;;;0.70;99.90;;;;;;5050636;28;20830;-72
2024/01/27 07:56:22;;;;;;;6.07;4.95;;;0.70;99.90;;;;;;5055381;28;20215;-71
2024/01/27 07:59:13;;;;;;;8.77;4.88;;;0.80;99.90;;;;;;5052545;28;20314;-71
2024/01/27 08:02:00;;;;;;;15.35;5.82;;;1.00;99.90;;;;;;5058677;28;20327;-71
2024/01/27 08:04:45;;;;;;;13.20;6.45;;;1.00;99.90;;;;;;5061665;28;20207;-71
2024/01/27 08:07:32;;;;;;;12.68;5.65;;;0.90;99.90;;;;;;5057150;28;20684;-71
2024/01/27 08:10:17;;;;;;;12.52;5.07;;;1.10;99.90;;;;;;5051660;28;20715;-71
2024/01/27 08:13:05;;;;;;;18.45;5.00;;;1.30;99.90;;;;;;5057255;28;20220;-72
2024/01/27 08:15:50;;;;;;;14.65;6.30;;;1.40;99.90;;;;;;5055931;28;20197;-71
2024/01/27 08:18:36;;;;;;;7.85;4.90;;;1.30;99.90;;;;;;5048317;28;20231;-71
2024/01/27 08:21:22;;;;;;;8.68;5.88;;;1.10;99.90;;;;;;5047704;28;20812;-71
2024/01/27 08:24:08;;;;;;;14.57;7.38;;;1.10;99.90;;;;;;5048465;28;20370;-73
2024/01/27 08:26:53;;;;;;;12.48;6.85;;;1.10;99.90;;;;;;5047717;28;20267;-71
2024/01/27 08:29:40;;;;;;;12.05;6.55;;;1.10;99.90;;;;;;5047077;28;20315;-71
2024/01/27 08:32:26;;;;;;;10.93;6.13;;;1.20;99.90;;;;;;5049210;28;20216;-71
2024/01/27 08:35:12;;;;;;;9.10;5.38;;;1.20;99.90;;;;;;5047812;28;20712;-71
2024/01/27 08:37:57;;;;;;;11.23;6.47;;;1.20;99.90;;;;;;5046304;28;20232;-71
2024/01/27 08:40:43;;;;;;;12.13;6.97;;;1.30;99.90;;;;;;5049071;28;20209;-72
2024/01/27 08:43:28;;;;;;;17.40;8.98;;;1.30;99.90;;;;;;5050621;28;20613;-72
2024/01/27 08:46:18;;;;;;;15.70;9.60;;;1.30;99.90;;;;;;5055931;28;20201;-71
2024/01/27 08:49:03;;;;;;;22.83;10.70;;;1.40;99.90;;;;;;5051351;28;20205;-71
2024/01/27 08:51:49;;;;;;;23.98;11.48;;;1.50;99.90;;;;;;5061693;28;20204;-72
2024/01/27 08:54:35;;;;;;;18.92;11.70;;;1.40;99.90;;;;;;5051618;28;20211;-71
2024/01/27 08:57:20;;;;;;;15.02;10.48;;;1.30;99.90;;;;;;5050860;28;21017;-71
2024/01/27 09:00:07;;;;;;;27.30;11.82;;;1.40;99.90;;;;;;5047722;28;20208;-71
2024/01/27 09:02:56;;;;;;;21.10;11.00;;;1.40;99.90;;;;;;5049512;28;20221;-71
2024/01/27 09:05:43;;;;;;;14.27;10.27;;;1.40;99.90;;;;;;5046253;28;20205;-72
2024/01/27 09:08:29;;;;;;;14.50;10.55;;;1.50;99.90;;;;;;5047074;28;20370;-72
2024/01/27 09:11:15;;;;;;;16.52;10.80;;;1.50;99.90;;;;;;5045432;28;20200;-72
2024/01/27 09:14:00;;;;;;;17.45;8.80;;;1.50;99.90;;;;;;5052407;28;20220;-71
2024/01/27 09:16:47;;;;;;;16.77;9.68;;;1.60;99.90;;;;;;5045523;28;20233;-72
2024/01/27 09:19:33;;;;;;;14.93;9.05;;;1.70;99.90;;;;;;5048293;28;20520;-71
2024/01/27 09:22:19;;;;;;;15.77;8.95;;;1.80;99.90;;;;;;5049328;28;20216;-71
2024/01/27 09:25:05;;;;;;;13.10;8.73;;;2.00;99.90;;;;;;5045338;28;20302;-71
2024/01/27 09:27:50;;;;;;;16.25;7.82;;;2.10;99.90;;;;;;5042500;28;20329;-72
2024/01/27 09:30:36;;;;;;;16.75;9.07;;;2.20;99.90;;;;;;5044600;28;20218;-72
2024/01/27 09:33:23;;;;;;;18.85;8.98;;;2.40;99.90;;;;;;5044936;28;20236;-71
2024/01/27 09:36:10;;;;;;;18.52;8.82;;;2.60;99.90;;;;;;5051308;28;20576;-72
2024/01/27 09:38:55;;;;;;;18.95;7.60;;;2.70;99.90;;;;;;5044993;28;20303;-74
2024/01/27 09:41:41;;;;;;;20.63;8.95;;;2.80;99.90;;;;;;5042694;28;20208;-71
2024/01/27 09:44:27;;;;;;;19.15;10.30;;;2.90;99.90;;;;;;5047917;28;20225;-71
2024/01/27 09:47:14;;;;;;;14.63;10.15;;;2.90;99.90;;;;;;5046019;28;20699;-71
2024/01/27 09:49:59;;;;;;;20.35;12.48;;;3.10;99.90;;;;;;5041185;28;20197;-72
2024/01/27 09:52:46;;;;;;;23.70;9.70;;;3.40;99.90;;;;;;5047162;28;20225;-71
2024/01/27 09:55:32;;;;;;;22.25;10.63;;;3.70;99.90;;;;;;5046120;28;20977;-71
2024/01/27 09:58:18;;;;;;;22.27;10.52;;;3.90;99.90;;;;;;5048604;28;20593;-71
2024/01/27 10:01:05;;;;;;;16.13;9.80;;;4.10;99.90;;;;;;5044144;28;20263;-72
2024/01/27 10:03:51;;;;;;;17.85;9.85;;;4.20;99.90;;;;;;5045948;28;20221;-71
2024/01/27 10:06:37;;;;;;;18.83;9.52;;;4.40;99.90;;;;;;5048285;28;20209;-72
2024/01/27 10:09:24;;;;;;;17.00;9.32;;;4.60;99.90;;;;;;5043442;28;20205;-72
2024/01/27 10:12:13;;;;;;;18.95;8.65;;;4.70;99.90;;;;;;5050292;28;20208;-71
2024/01/27 10:14:59;;;;;;;19.75;9.20;;;4.90;99.90;;;;;;5047655;28;20498;-72
2024/01/27 10:17:44;;;;;;;15.65;7.55;;;5.00;99.90;;;;;;5046438;28;20276;-71
2024/01/27 10:20:30;;;;;;;24.13;8.82;;;5.20;99.90;;;;;;5048115;28;20228;-72
2024/01/27 10:23:17;;;;;;;24.00;8.68;;;5.40;99.90;;;;;;5045290;28;20236;-72
2024/01/27 10:26:04;;;;;;;10.17;7.20;;;5.60;99.90;;;;;;5048759;28;20855;-72
2024/01/27 10:28:54;;;;;;;18.07;7.30;;;6.00;99.90;;;;;;5048776;28;20440;-72
2024/01/27 10:31:40;;;;;;;15.07;6.55;;;6.20;99.90;;;;;;5044399;28;20586;-71
2024/01/27 10:34:25;;;;;;;20.58;7.63;;;6.30;99.90;;;;;;5044184;28;20242;-72
2024/01/27 10:37:13;;;;;;;19.92;7.05;;;6.60;99.90;;;;;;5046511;28;20510;-72
2024/01/27 10:40:04;;;;;;;15.90;6.60;;;6.80;99.90;;;;;;5046349;28;20706;-72
2024/01/27 10:43:01;;;;;;;9.87;5.60;;;7.00;99.90;;;;;;5046875;28;20829;-71
2024/01/27 10:45:46;;;;;;;11.67;5.90;;;7.50;99.90;;;;;;5052123;28;20446;-72
2024/01/27 10:48:32;;;;;;;11.57;7.13;;;7.80;99.90;;;;;;5046613;28;20497;-72
2024/01/27 10:51:23;;;;;;;12.00;6.17;;;7.80;99.90;;;;;;5047151;28;20440;-73
2024/01/27 10:54:15;;;;;;;17.30;5.80;;;8.10;99.90;;;;;;5046406;28;20461;-71
2024/01/27 10:57:02;;;;;;;16.27;7.00;;;8.40;99.90;;;;;;5044217;28;21978;-72
2024/01/27 10:59:51;;;;;;;13.70;4.90;;;8.60;99.90;;;;;;5046795;28;20488;-72
2024/01/27 11:02:37;;;;;;;13.73;5.70;;;8.80;99.90;;;;;;5048993;28;20540;-71
2024/01/27 11:05:25;;;;;;;23.27;5.60;;;9.20;99.90;;;;;;5057298;28;20528;-72
2024/01/27 11:08:13;;;;;;;7.80;4.30;;;9.40;99.90;;;;;;5052029;28;20532;-72
2024/01/27 11:11:00;;;;;;;14.40;4.33;;;9.60;99.90;;;;;;5052653;28;20873;-72
2024/01/27 11:13:48;;;;;;;9.37;5.07;;;9.50;99.90;;;;;;5054797;28;20469;-72
2024/01/27 11:16:38;;;;;;;12.70;5.87;;;9.60;99.90;;;;;;5050669;28;20589;-72
2024/01/27 11:19:24;;;;;;;11.13;5.83;;;9.50;99.90;;;;;;5048400;28;20843;-72
2024/01/27 11:22:26;;;;;;;16.17;4.70;;;9.50;99.90;;;;;;5045347;28;20452;-72
2024/01/27 11:25:17;;;;;;;7.50;4.00;;;9.50;95.90;;;;;;5045974;28;20450;-71
2024/01/27 11:28:12;;;;;;;21.73;3.80;;;9.30;94.40;;;;;;5047707;28;20454;-72
2024/01/27 11:30:58;;;;;;;14.67;3.47;;;9.10;90.00;;;;;;5048966;28;20500;-72
2024/01/27 11:33:48;;;;;;;6.00;2.90;;;8.90;91.50;;;;;;5047894;28;21011;-71
2024/01/27 11:36:34;;;;;;;12.93;3.53;;;9.00;92.00;;;;;;5053582;28;20430;-72
2024/01/27 11:39:28;;;;;;;11.57;2.77;;;8.90;91.50;;;;;;5050431;28;20470;-70
2024/01/27 11:42:15;;;;;;;9.77;3.37;;;9.00;92.50;;;;;;5053414;28;20507;-71
2024/01/27 11:45:01;;;;;;;10.90;3.40;;;8.80;93.00;;;;;;5048844;28;20429;-71
2024/01/27 11:47:47;;;;;;;7.17;2.30;;;8.70;93.30;;;;;;5048058;28;20450;-71
2024/01/27 11:50:34;;;;;;;9.57;2.43;;;8.60;92.40;;;;;;5051421;28;20438;-71
2024/01/27 11:53:20;;;;;;;16.73;6.60;;;8.50;89.70;;;;;;5044330;28;20479;-71
2024/01/27 11:56:06;;;;;;;10.27;3.90;;;8.50;89.30;;;;;;5049858;28;20445;-71
2024/01/27 11:58:52;;;;;;;14.23;4.07;;;8.50;90.50;;;;;;5055828;28;20494;-71
2024/01/27 12:01:38;;;;;;;16.57;4.00;;;8.40;91.70;;;;;;5045881;28;20581;-71
2024/01/27 12:04:24;;;;;;;10.57;3.67;;;8.30;92.70;;;;;;5047790;28;20469;-71
2024/01/27 12:07:12;;;;;;;6.90;2.97;;;8.20;93.40;;;;;;5045135;28;20453;-71
2024/01/27 12:09:57;;;;;;;12.57;5.73;;;8.10;93.70;;;;;;5046203;28;20774;-70
2024/01/27 12:12:43;;;;;;;9.57;3.53;;;8.20;94.40;;;;;;5049202;28;21142;-72
2024/01/27 12:15:29;;;;;;;13.63;4.83;;;8.30;95.50;;;;;;5054727;28;20502;-72
2024/01/27 12:18:14;;;;;;;12.97;3.40;;;8.40;91.60;;;;;;5049692;28;20462;-72
2024/01/27 12:21:00;;;;;;;13.17;4.20;;;8.40;79.90;;;;;;5054676;28;20488;-72
2024/01/27 12:23:53;;;;;;;10.83;3.13;;;8.40;75.40;;;;;;5061282;28;20438;-72
2024/01/27 12:26:39;;;;;;;8.93;2.23;;;8.40;73.20;;;;;;5054263;28;20430;-72
2024/01/27 12:29:24;;;;;;;5.73;2.13;;;8.40;64.40;;;;;;5055327;28;20900;-72
2024/01/27 12:32:10;;;;;;;7.70;1.93;;;8.50;61.20;;;;;;5053314;28;20427;-72
2024/01/27 12:34:58;;;;;;;6.97;2.40;;;8.70;64.50;;;;;;5052293;28;20426;-73
2024/01/27 12:37:44;;;;;;;6.17;1.93;;;9.00;65.20;;;;;;5056134;28;20421;-72
2024/01/27 12:40:32;;;;;;;12.63;2.43;;;9.50;64.60;;;;;;5048369;28;20473;-72
2024/01/27 12:43:18;;;;;;;9.80;2.10;;;9.90;67.10;;;;;;5058791;28;20455;-71
2024/01/27 12:46:03;;;;;;;10.50;2.47;;;10.40;64.50;;;;;;5042783;28;20512;-72
2024/01/27 12:48:49;;;;;;;8.90;2.33;;;10.90;54.30;;;;;;5053701;28;20427;-72
2024/01/27 12:51:35;;;;;;;4.70;2.20;;;11.50;40.10;;;;;;5054070;28;20432;-72
2024/01/27 12:54:20;;;;;;;11.70;2.60;;;11.60;36.10;;;;;;5061210;28;20453;-72
2024/01/27 12:57:09;;;;;;;14.93;2.40;;;11.80;30.80;;;;;;5048907;28;20481;-72
2024/01/27 12:59:54;;;;;;;8.93;2.73;;;12.20;26.50;;;;;;5045504;28;20516;-72
2024/01/27 13:02:40;;;;;;;9.13;2.40;;;12.30;25.70;;;;;;5053215;28;20450;-72
2024/01/27 13:05:26;;;;;;;6.60;2.43;;;12.70;26.30;;;;;;5052669;28;20842;-72
2024/01/27 13:08:12;;;;;;;9.03;2.07;;;13.20;24.30;;;;;;5054526;28;20429;-72
2024/01/27 13:10:57;;;;;;;10.77;2.60;;;13.40;23.20;;;;;;5048801;28;20424;-72
2024/01/27 13:13:44;;;;;;;10.03;3.30;;;13.80;21.00;;;;;;5044958;28;20479;-73
2024/01/27 13:16:30;;;;;;;9.70;2.20;;;13.80;21.30;;;;;;5047105;28;20448;-72
2024/01/27 13:19:16;;;;;;;5.90;2.30;;;13.90;21.40;;;;;;5057976;28;20451;-72
2024/01/27 13:22:02;;;;;;;8.47;2.50;;;14.00;18.20;;;;;;5058977;28;20397;-73
2024/01/27 13:24:47;;;;;;;7.70;3.00;;;14.40;16.30;;;;;;5048038;28;20500;-72
2024/01/27 13:27:34;;;;;;;8.73;2.50;;;14.40;14.60;;;;;;5046673;28;20422;-72
2024/01/27 13:30:20;;;;;;;8.07;2.97;;;14.30;15.00;;;;;;5054083;28;20402;-72
2024/01/27 13:33:06;;;;;;;12.90;3.63;;;14.20;17.60;;;;;;5046965;28;20455;-72
2024/01/27 13:35:52;;;;;;;14.33;2.37;;;14.00;15.10;;;;;;5037917;28;20447;-72
2024/01/27 13:38:37;;;;;;;16.57;3.40;;;14.00;19.80;;;;;;5043762;28;20493;-72
2024/01/27 13:41:23;;;;;;;12.00;2.60;;;14.30;15.30;;;;;;5064597;28;20557;-73
2024/01/27 13:44:09;;;;;;;9.40;2.83;;;14.60;15.80;;;;;;5038299;28;20557;-73
2024/01/27 13:47:00;;;;;;;10.00;2.80;;;15.20;13.90;;;;;;5045795;28;20437;-72
2024/01/27 13:49:46;;;;;;;12.10;3.23;;;15.60;11.30;;;;;;5055645;28;20418;-73
2024/01/27 13:52:31;;;;;;;14.50;2.90;;;15.60;13.40;;;;;;5062752;28;20451;-73
2024/01/27 13:55:17;;;;;;;7.20;2.43;;;15.10;15.70;;;;;;5058060;28;20437;-73
2024/01/27 13:58:03;;;;;;;6.43;2.23;;;14.10;17.80;;;;;;5049408;28;20784;-73
2024/01/27 14:00:48;;;;;;;82.47;27.67;;;12.90;18.90;;;;;;5057972;28;20476;-72
2024/01/27 14:03:36;;;;;;;78.03;23.87;;;11.70;24.30;;;;;;5049057;28;20574;-73
2024/01/27 14:06:22;;;;;;;19.30;6.27;;;11.10;31.70;;;;;;5042606;28;20591;-73
2024/01/27 14:09:09;;;;;;;9.30;3.17;;;10.50;42.00;;;;;;5059001;28;20798;-73
2024/01/27 14:11:54;;;;;;;41.87;13.53;;;10.10;48.20;;;;;;5051094;28;20425;-73
2024/01/27 14:14:41;;;;;;;57.73;19.53;;;9.80;52.90;;;;;;5055033;28;20512;-73
2024/01/27 14:17:26;;;;;;;43.00;17.80;;;9.30;64.80;;;;;;5060555;28;20960;-72
2024/01/27 14:20:14;;;;;;;29.23;9.77;;;9.10;66.60;;;;;;5048223;28;20457;-73
2024/01/27 14:22:59;;;;;;;20.70;5.80;;;8.80;66.90;;;;;;5061731;28;20832;-70
2024/01/27 14:25:45;;;;;;;15.10;4.23;;;8.60;71.70;;;;;;5052916;28;20425;-69
2024/01/27 14:28:31;;;;;;;12.77;4.30;;;8.50;76.60;;;;;;5055174;28;20430;-73
2024/01/27 14:31:17;;;;;;;7.43;3.80;;;8.20;79.80;;;;;;5046152;28;20454;-73